createdAt,value
2018-02-12T00:00:05.849Z,966.60
2018-02-12T00:01:05.666Z,966.68
2018-02-12T00:02:06.083Z,966.57
2018-02-12T00:03:10.078Z,966.52
2018-02-12T00:04:05.321Z,966.68
2018-02-12T00:05:05.759Z,966.49
2018-02-12T00:06:05.463Z,966.71
2018-02-12T00:07:05.768Z,966.60
2018-02-12T00:08:10.647Z,966.66
2018-02-12T00:09:05.820Z,966.74
2018-02-12T00:10:05.926Z,966.63
2018-02-12T00:11:05.630Z,966.61
2018-02-12T00:12:10.005Z,966.67
2018-02-12T00:13:10.110Z,966.72
2018-02-12T00:14:05.618Z,966.59
2018-02-12T00:15:05.387Z,966.87
2018-02-12T00:16:05.594Z,966.70
2018-02-12T00:17:05.713Z,966.67
2018-02-12T00:18:05.857Z,966.62
2018-02-12T00:19:05.844Z,966.70
2018-02-12T00:20:05.127Z,966.76
2018-02-12T00:21:05.260Z,966.65
2018-02-12T00:22:06.228Z,966.65
2018-02-12T00:23:05.069Z,966.68
2018-02-12T00:24:05.367Z,966.82
2018-02-12T00:25:05.742Z,966.66
2018-02-12T00:26:05.518Z,966.80
2018-02-12T00:27:05.460Z,966.69
2018-02-12T00:28:05.167Z,966.63
2018-02-12T00:29:05.468Z,966.63
2018-02-12T00:30:05.284Z,966.55
2018-02-12T00:31:05.071Z,966.63
2018-02-12T00:32:05.434Z,966.80
2018-02-12T00:33:05.099Z,966.86
2018-02-12T00:34:05.402Z,966.83
2018-02-12T00:35:05.789Z,966.69
2018-02-12T00:36:05.470Z,966.72
2018-02-12T00:37:05.359Z,966.80
2018-02-12T00:38:05.303Z,966.77
2018-02-12T00:39:05.958Z,966.80
2018-02-12T00:40:05.701Z,966.80
2018-02-12T00:41:05.861Z,966.94
2018-02-12T00:42:05.398Z,966.91
2018-02-12T00:43:04.970Z,966.88
2018-02-12T00:44:05.331Z,966.91
2018-02-12T00:45:05.706Z,966.91
2018-02-12T00:46:05.999Z,966.94
2018-02-12T00:47:05.660Z,966.96
2018-02-12T00:48:05.520Z,966.91
2018-02-12T00:49:06.500Z,966.85
2018-02-12T00:50:05.518Z,966.85
2018-02-12T00:51:05.347Z,966.94
2018-02-12T00:52:05.885Z,966.91
2018-02-12T00:53:05.968Z,966.91
2018-02-12T00:54:05.219Z,966.80
2018-02-12T00:55:05.206Z,966.91
2018-02-12T00:56:05.470Z,966.74
2018-02-12T00:57:05.383Z,966.80
2018-02-12T00:58:05.789Z,966.91
2018-02-12T00:59:05.461Z,966.91
2018-02-12T01:00:10.175Z,966.77
2018-02-12T01:01:05.737Z,966.88
2018-02-12T01:02:05.541Z,966.91
2018-02-12T01:03:05.854Z,966.91
2018-02-12T01:04:05.267Z,966.88
2018-02-12T01:05:05.873Z,966.96
2018-02-12T01:06:05.117Z,966.99
2018-02-12T01:07:05.810Z,967.09
2018-02-12T01:08:10.058Z,967.15
2018-02-12T01:09:05.991Z,967.09
2018-02-12T01:10:05.853Z,967.06
2018-02-12T01:11:05.403Z,967.12
2018-02-12T01:12:05.025Z,967.15
2018-02-12T01:13:05.455Z,966.99
2018-02-12T01:14:05.305Z,967.12
2018-02-12T01:15:06.034Z,967.12
2018-02-12T01:16:05.776Z,967.15
2018-02-12T01:17:05.280Z,967.15
2018-02-12T01:18:06.100Z,967.12
2018-02-12T01:19:05.331Z,967.10
2018-02-12T01:20:05.554Z,967.15
2018-02-12T01:21:05.262Z,967.10
2018-02-12T01:22:06.498Z,967.10
2018-02-12T01:23:05.128Z,967.10
2018-02-12T01:24:05.446Z,967.02
2018-02-12T01:25:06.061Z,967.13
2018-02-12T01:26:05.298Z,966.97
2018-02-12T01:27:05.546Z,967.08
2018-02-12T01:28:05.556Z,966.84
2018-02-12T01:29:05.961Z,967.08
2018-02-12T01:30:05.284Z,967.16
2018-02-12T01:31:06.014Z,966.97
2018-02-12T01:32:05.771Z,967.10
2018-02-12T01:33:05.814Z,966.86
2018-02-12T01:34:05.080Z,966.89
2018-02-12T01:35:05.115Z,966.94
2018-02-12T01:36:05.466Z,967.01
2018-02-12T01:37:05.871Z,967.01
2018-02-12T01:38:10.244Z,967.12
2018-02-12T01:39:05.576Z,967.04
2018-02-12T01:40:05.644Z,967.07
2018-02-12T01:41:05.197Z,967.06
2018-02-12T01:42:05.522Z,967.03
2018-02-12T01:43:05.043Z,967.01
2018-02-12T01:44:05.829Z,967.14
2018-02-12T01:45:05.515Z,967.03
2018-02-12T01:46:05.951Z,967.03
2018-02-12T01:47:05.266Z,967.01
2018-02-12T01:48:05.382Z,967.01
2018-02-12T01:49:05.041Z,966.93
2018-02-12T01:50:05.124Z,967.11
2018-02-12T01:51:05.929Z,967.01
2018-02-12T01:52:05.792Z,967.08
2018-02-12T01:53:05.704Z,967.13
2018-02-12T01:54:05.074Z,967.02
2018-02-12T01:55:05.451Z,967.05
2018-02-12T01:56:05.237Z,967.02
2018-02-12T01:57:10.445Z,967.05
2018-02-12T01:58:05.412Z,967.10
2018-02-12T01:59:05.885Z,967.16
2018-02-12T02:00:10.668Z,967.13
2018-02-12T02:01:05.831Z,967.10
2018-02-12T02:02:05.136Z,967.16
2018-02-12T02:03:05.101Z,967.05
2018-02-12T02:04:05.436Z,967.05
2018-02-12T02:05:05.298Z,966.94
2018-02-12T02:06:05.669Z,966.92
2018-02-12T02:07:05.450Z,967.24
2018-02-12T02:08:05.756Z,967.00
2018-02-12T02:09:05.827Z,967.02
2018-02-12T02:10:05.781Z,967.10
2018-02-12T02:11:05.311Z,967.15
2018-02-12T02:12:05.229Z,967.10
2018-02-12T02:13:05.088Z,967.02
2018-02-12T02:14:05.640Z,967.00
2018-02-12T02:15:05.351Z,967.10
2018-02-12T02:16:05.924Z,967.10
2018-02-12T02:17:05.539Z,967.04
2018-02-12T02:18:05.639Z,967.04
2018-02-12T02:19:05.391Z,967.07
2018-02-12T02:20:05.223Z,967.01
2018-02-12T02:21:05.191Z,967.00
2018-02-12T02:22:06.108Z,967.00
2018-02-12T02:23:05.522Z,966.91
2018-02-12T02:24:05.608Z,966.83
2018-02-12T02:25:05.434Z,966.97
2018-02-12T02:26:05.527Z,967.07
2018-02-12T02:27:05.200Z,966.97
2018-02-12T02:28:05.743Z,967.07
2018-02-12T02:29:05.628Z,966.97
2018-02-12T02:30:10.889Z,966.85
2018-02-12T02:31:05.313Z,967.04
2018-02-12T02:32:05.284Z,967.01
2018-02-12T02:33:05.333Z,967.04
2018-02-12T02:34:05.365Z,967.01
2018-02-12T02:35:05.506Z,966.96
2018-02-12T02:36:05.749Z,966.94
2018-02-12T02:37:05.283Z,967.15
2018-02-12T02:38:05.597Z,967.09
2018-02-12T02:39:05.905Z,966.91
2018-02-12T02:40:05.217Z,966.91
2018-02-12T02:41:05.930Z,967.04
2018-02-12T02:42:05.244Z,967.09
2018-02-12T02:43:05.419Z,966.80
2018-02-12T02:44:05.616Z,966.86
2018-02-12T02:45:05.982Z,966.94
2018-02-12T02:46:05.405Z,967.01
2018-02-12T02:47:05.689Z,966.94
2018-02-12T02:48:05.669Z,967.02
2018-02-12T02:49:05.905Z,966.94
2018-02-12T02:50:06.056Z,966.97
2018-02-12T02:51:06.737Z,967.05
2018-02-12T02:52:05.719Z,967.05
2018-02-12T02:53:05.440Z,966.92
2018-02-12T02:54:05.809Z,966.89
2018-02-12T02:55:05.554Z,966.92
2018-02-12T02:56:05.942Z,967.05
2018-02-12T02:57:08.175Z,966.81
2018-02-12T02:58:04.999Z,966.95
2018-02-12T02:59:05.804Z,967.02
2018-02-12T03:00:05.796Z,966.95
2018-02-12T03:01:05.212Z,966.95
2018-02-12T03:02:06.414Z,967.08
2018-02-12T03:03:05.448Z,967.16
2018-02-12T03:04:05.895Z,967.08
2018-02-12T03:05:05.733Z,967.14
2018-02-12T03:06:05.846Z,967.19
2018-02-12T03:07:04.953Z,967.14
2018-02-12T03:08:05.289Z,967.03
2018-02-12T03:09:05.933Z,967.11
2018-02-12T03:10:10.178Z,967.11
2018-02-12T03:11:05.306Z,967.14
2018-02-12T03:12:05.102Z,967.17
2018-02-12T03:13:05.697Z,967.25
2018-02-12T03:14:05.908Z,967.22
2018-02-12T03:15:05.420Z,967.17
2018-02-12T03:16:05.937Z,967.22
2018-02-12T03:17:05.213Z,967.17
2018-02-12T03:18:06.033Z,967.17
2018-02-12T03:19:08.608Z,967.14
2018-02-12T03:20:05.527Z,967.17
2018-02-12T03:21:05.567Z,967.28
2018-02-12T03:22:05.081Z,967.22
2018-02-12T03:23:05.708Z,967.06
2018-02-12T03:24:05.668Z,967.22
2018-02-12T03:25:05.991Z,967.41
2018-02-12T03:26:05.128Z,967.36
2018-02-12T03:27:05.559Z,967.17
2018-02-12T03:28:05.306Z,967.28
2018-02-12T03:29:05.348Z,967.14
2018-02-12T03:30:05.290Z,967.22
2018-02-12T03:31:05.669Z,967.28
2018-02-12T03:32:05.534Z,967.19
2018-02-12T03:33:05.775Z,967.19
2018-02-12T03:34:05.339Z,967.17
2018-02-12T03:35:05.917Z,967.25
2018-02-12T03:36:05.254Z,967.25
2018-02-12T03:37:05.388Z,967.25
2018-02-12T03:38:05.498Z,967.22
2018-02-12T03:39:06.496Z,967.30
2018-02-12T03:40:05.095Z,967.28
2018-02-12T03:41:05.804Z,967.25
2018-02-12T03:42:05.716Z,967.28
2018-02-12T03:43:05.261Z,967.28
2018-02-12T03:44:05.870Z,967.28
2018-02-12T03:45:05.360Z,967.20
2018-02-12T03:46:05.337Z,967.20
2018-02-12T03:47:05.300Z,967.31
2018-02-12T03:48:05.904Z,967.31
2018-02-12T03:49:05.600Z,967.23
2018-02-12T03:50:05.554Z,967.20
2018-02-12T03:51:05.575Z,967.29
2018-02-12T03:52:04.996Z,967.17
2018-02-12T03:53:05.666Z,967.26
2018-02-12T03:54:05.327Z,967.18
2018-02-12T03:55:05.362Z,967.29
2018-02-12T03:56:05.645Z,967.21
2018-02-12T03:57:05.221Z,967.29
2018-02-12T03:58:05.452Z,967.24
2018-02-12T03:59:05.262Z,967.19
2018-02-12T04:00:05.416Z,967.27
2018-02-12T04:01:06.020Z,967.19
2018-02-12T04:02:05.411Z,967.46
2018-02-12T04:03:05.545Z,967.33
2018-02-12T04:04:06.130Z,967.41
2018-02-12T04:05:05.326Z,967.44
2018-02-12T04:06:05.251Z,967.36
2018-02-12T04:07:05.335Z,967.39
2018-02-12T04:08:05.415Z,967.50
2018-02-12T04:09:05.665Z,967.44
2018-02-12T04:10:05.292Z,967.42
2018-02-12T04:11:05.453Z,967.42
2018-02-12T04:12:05.029Z,967.32
2018-02-12T04:13:06.039Z,967.45
2018-02-12T04:14:05.927Z,967.45
2018-02-12T04:15:05.578Z,967.35
2018-02-12T04:16:05.866Z,967.32
2018-02-12T04:17:05.572Z,967.30
2018-02-12T04:18:05.988Z,967.35
2018-02-12T04:19:05.477Z,967.46
2018-02-12T04:20:05.801Z,967.43
2018-02-12T04:21:05.308Z,967.46
2018-02-12T04:22:06.021Z,967.36
2018-02-12T04:23:06.061Z,967.46
2018-02-12T04:24:05.227Z,967.44
2018-02-12T04:25:05.296Z,967.49
2018-02-12T04:26:05.551Z,967.46
2018-02-12T04:27:05.445Z,967.44
2018-02-12T04:28:05.563Z,967.41
2018-02-12T04:29:05.116Z,967.36
2018-02-12T04:30:06.017Z,967.66
2018-02-12T04:31:05.452Z,967.55
2018-02-12T04:32:05.293Z,967.52
2018-02-12T04:33:05.676Z,967.47
2018-02-12T04:34:05.262Z,967.63
2018-02-12T04:35:05.440Z,967.52
2018-02-12T04:36:05.893Z,967.50
2018-02-12T04:37:05.935Z,967.44
2018-02-12T04:38:05.216Z,967.47
2018-02-12T04:39:05.085Z,967.47
2018-02-12T04:40:05.227Z,967.53
2018-02-12T04:41:04.955Z,967.39
2018-02-12T04:42:05.413Z,967.50
2018-02-12T04:43:05.086Z,967.47
2018-02-12T04:44:05.101Z,967.35
2018-02-12T04:45:05.603Z,967.50
2018-02-12T04:46:06.923Z,967.56
2018-02-12T04:47:05.689Z,967.53
2018-02-12T04:48:05.812Z,967.59
2018-02-12T04:49:05.513Z,967.62
2018-02-12T04:50:10.935Z,967.54
2018-02-12T04:51:05.381Z,967.54
2018-02-12T04:52:05.852Z,967.56
2018-02-12T04:53:06.114Z,967.59
2018-02-12T04:54:04.983Z,967.54
2018-02-12T04:55:05.465Z,967.65
2018-02-12T04:56:05.570Z,967.60
2018-02-12T04:57:05.146Z,967.54
2018-02-12T04:58:04.948Z,967.54
2018-02-12T04:59:05.016Z,967.57
2018-02-12T05:00:05.715Z,967.68
2018-02-12T05:01:05.025Z,967.60
2018-02-12T05:02:05.787Z,967.60
2018-02-12T05:03:05.409Z,967.57
2018-02-12T05:04:06.991Z,967.68
2018-02-12T05:05:05.359Z,967.71
2018-02-12T05:06:05.790Z,967.63
2018-02-12T05:07:05.754Z,967.60
2018-02-12T05:08:05.116Z,967.63
2018-02-12T05:09:05.415Z,967.60
2018-02-12T05:10:06.061Z,967.85
2018-02-12T05:11:11.327Z,967.77
2018-02-12T05:12:05.164Z,967.66
2018-02-12T05:13:05.625Z,967.77
2018-02-12T05:14:05.537Z,967.77
2018-02-12T05:15:05.883Z,967.66
2018-02-12T05:16:05.798Z,967.77
2018-02-12T05:17:05.996Z,967.71
2018-02-12T05:18:05.290Z,967.82
2018-02-12T05:19:05.119Z,967.82
2018-02-12T05:20:05.747Z,967.68
2018-02-12T05:21:05.667Z,967.76
2018-02-12T05:22:05.236Z,967.79
2018-02-12T05:23:05.476Z,967.70
2018-02-12T05:24:10.572Z,968.03
2018-02-12T05:25:05.798Z,967.84
2018-02-12T05:26:05.818Z,967.76
2018-02-12T05:27:06.034Z,967.84
2018-02-12T05:28:05.344Z,967.84
2018-02-12T05:29:05.260Z,967.84
2018-02-12T05:30:06.659Z,967.86
2018-02-12T05:31:05.344Z,967.95
2018-02-12T05:32:05.461Z,967.97
2018-02-12T05:33:05.781Z,968.06
2018-02-12T05:34:05.912Z,968.03
2018-02-12T05:35:05.957Z,968.03
2018-02-12T05:36:05.350Z,968.05
2018-02-12T05:37:05.668Z,968.03
2018-02-12T05:38:05.332Z,967.97
2018-02-12T05:39:05.290Z,967.89
2018-02-12T05:40:05.543Z,967.94
2018-02-12T05:41:05.018Z,968.05
2018-02-12T05:42:05.539Z,968.08
2018-02-12T05:43:05.446Z,968.00
2018-02-12T05:44:09.166Z,968.00
2018-02-12T05:45:05.094Z,967.94
2018-02-12T05:46:05.088Z,968.05
2018-02-12T05:47:05.058Z,967.99
2018-02-12T05:48:05.550Z,967.88
2018-02-12T05:49:05.351Z,968.05
2018-02-12T05:50:05.795Z,968.10
2018-02-12T05:51:05.681Z,968.02
2018-02-12T05:52:05.769Z,968.10
2018-02-12T05:53:05.913Z,967.91
2018-02-12T05:54:06.580Z,968.10
2018-02-12T05:55:05.521Z,967.99
2018-02-12T05:56:05.666Z,967.97
2018-02-12T05:57:05.306Z,968.02
2018-02-12T05:58:05.310Z,967.99
2018-02-12T05:59:05.347Z,968.05
2018-02-12T06:00:05.111Z,968.05
2018-02-12T06:01:05.179Z,968.08
2018-02-12T06:02:10.676Z,968.27
2018-02-12T06:03:05.262Z,968.16
2018-02-12T06:04:05.987Z,968.22
2018-02-12T06:05:05.551Z,968.38
2018-02-12T06:06:05.562Z,968.27
2018-02-12T06:07:05.839Z,968.22
2018-02-12T06:08:04.929Z,968.25
2018-02-12T06:09:04.916Z,968.27
2018-02-12T06:10:05.771Z,968.33
2018-02-12T06:11:05.305Z,968.33
2018-02-12T06:12:05.863Z,968.39
2018-02-12T06:13:05.506Z,968.47
2018-02-12T06:14:05.493Z,968.33
2018-02-12T06:15:05.323Z,968.33
2018-02-12T06:16:05.275Z,968.39
2018-02-12T06:17:06.741Z,968.36
2018-02-12T06:18:06.001Z,968.36
2018-02-12T06:19:05.552Z,968.39
2018-02-12T06:20:05.642Z,968.44
2018-02-12T06:21:05.702Z,968.47
2018-02-12T06:22:05.242Z,968.41
2018-02-12T06:23:05.801Z,968.55
2018-02-12T06:24:05.909Z,968.44
2018-02-12T06:25:05.646Z,968.47
2018-02-12T06:26:05.327Z,968.46
2018-02-12T06:27:05.955Z,968.63
2018-02-12T06:28:05.138Z,968.57
2018-02-12T06:29:05.767Z,968.60
2018-02-12T06:30:05.832Z,968.66
2018-02-12T06:31:05.052Z,968.73
2018-02-12T06:32:05.599Z,968.73
2018-02-12T06:33:05.997Z,968.73
2018-02-12T06:34:05.455Z,968.68
2018-02-12T06:35:05.437Z,968.78
2018-02-12T06:36:05.485Z,968.71
2018-02-12T06:37:05.716Z,968.65
2018-02-12T06:38:05.817Z,968.89
2018-02-12T06:39:05.248Z,968.92
2018-02-12T06:40:05.937Z,968.81
2018-02-12T06:41:10.877Z,968.86
2018-02-12T06:42:05.098Z,968.89
2018-02-12T06:43:05.277Z,968.95
2018-02-12T06:44:05.434Z,968.97
2018-02-12T06:45:05.118Z,968.83
2018-02-12T06:46:05.524Z,968.89
2018-02-12T06:47:05.672Z,968.97
2018-02-12T06:48:05.027Z,968.86
2018-02-12T06:49:05.764Z,968.98
2018-02-12T06:50:05.821Z,969.11
2018-02-12T06:51:05.526Z,968.95
2018-02-12T06:52:05.465Z,968.95
2018-02-12T06:53:05.207Z,969.06
2018-02-12T06:54:10.304Z,969.09
2018-02-12T06:55:05.479Z,968.92
2018-02-12T06:56:05.529Z,969.01
2018-02-12T06:57:05.250Z,969.14
2018-02-12T06:58:05.770Z,969.31
2018-02-12T06:59:10.826Z,969.12
2018-02-12T07:00:05.891Z,969.06
2018-02-12T07:01:05.396Z,969.17
2018-02-12T07:02:05.846Z,969.01
2018-02-12T07:03:05.933Z,969.09
2018-02-12T07:04:05.942Z,969.01
2018-02-12T07:05:05.624Z,969.01
2018-02-12T07:06:05.996Z,969.09
2018-02-12T07:07:05.780Z,968.95
2018-02-12T07:08:05.862Z,968.93
2018-02-12T07:09:05.012Z,969.01
2018-02-12T07:10:05.437Z,969.07
2018-02-12T07:11:05.394Z,969.04
2018-02-12T07:12:10.814Z,969.09
2018-02-12T07:13:04.948Z,969.01
2018-02-12T07:14:10.414Z,968.82
2018-02-12T07:15:05.527Z,969.10
2018-02-12T07:16:05.253Z,968.99
2018-02-12T07:17:05.459Z,969.04
2018-02-12T07:18:05.993Z,968.91
2018-02-12T07:19:05.266Z,968.99
2018-02-12T07:20:05.092Z,969.02
2018-02-12T07:21:05.285Z,969.10
2018-02-12T07:22:05.095Z,969.19
2018-02-12T07:23:05.351Z,969.21
2018-02-12T07:24:05.651Z,969.27
2018-02-12T07:25:05.877Z,969.33
2018-02-12T07:26:06.656Z,969.24
2018-02-12T07:27:05.034Z,969.22
2018-02-12T07:28:05.446Z,969.39
2018-02-12T07:29:05.209Z,969.30
2018-02-12T07:30:05.711Z,969.19
2018-02-12T07:31:05.221Z,969.39
2018-02-12T07:32:05.526Z,969.39
2018-02-12T07:33:05.922Z,969.36
2018-02-12T07:34:05.637Z,969.39
2018-02-12T07:35:05.672Z,969.33
2018-02-12T07:36:05.899Z,969.50
2018-02-12T07:37:05.423Z,969.39
2018-02-12T07:38:06.132Z,969.47
2018-02-12T07:39:05.384Z,969.36
2018-02-12T07:40:05.646Z,969.55
2018-02-12T07:41:05.645Z,969.49
2018-02-12T07:42:10.403Z,969.63
2018-02-12T07:43:05.586Z,969.43
2018-02-12T07:44:06.136Z,969.57
2018-02-12T07:45:05.178Z,969.62
2018-02-12T07:46:05.860Z,969.73
2018-02-12T07:47:04.984Z,969.50
2018-02-12T07:48:06.339Z,969.52
2018-02-12T07:49:05.049Z,969.52
2018-02-12T07:50:05.578Z,969.52
2018-02-12T07:51:08.260Z,969.51
2018-02-12T07:52:05.146Z,969.51
2018-02-12T07:53:05.852Z,969.67
2018-02-12T07:54:05.274Z,969.56
2018-02-12T07:55:05.512Z,969.67
2018-02-12T07:56:05.630Z,969.55
2018-02-12T07:57:05.231Z,969.69
2018-02-12T07:58:05.218Z,969.61
2018-02-12T07:59:05.530Z,969.74
2018-02-12T08:00:05.658Z,969.72
2018-02-12T08:01:05.549Z,969.77
2018-02-12T08:02:05.888Z,969.72
2018-02-12T08:03:05.555Z,969.77
2018-02-12T08:04:05.381Z,969.74
2018-02-12T08:05:05.881Z,969.88
2018-02-12T08:06:10.028Z,969.93
2018-02-12T08:07:05.112Z,969.88
2018-02-12T08:08:05.596Z,970.01
2018-02-12T08:09:06.258Z,969.85
2018-02-12T08:10:05.312Z,969.97
2018-02-12T08:11:05.703Z,970.00
2018-02-12T08:12:05.379Z,970.00
2018-02-12T08:13:05.888Z,970.00
2018-02-12T08:14:05.058Z,970.08
2018-02-12T08:15:05.797Z,969.97
2018-02-12T08:16:05.096Z,969.89
2018-02-12T08:17:05.649Z,969.92
2018-02-12T08:18:05.720Z,969.92
2018-02-12T08:19:05.651Z,970.05
2018-02-12T08:20:05.176Z,970.11
2018-02-12T08:21:05.755Z,970.05
2018-02-12T08:22:05.101Z,970.13
2018-02-12T08:23:05.958Z,969.83
2018-02-12T08:24:05.825Z,970.02
2018-02-12T08:25:05.772Z,970.02
2018-02-12T08:26:05.331Z,969.99
2018-02-12T08:27:05.139Z,970.02
2018-02-12T08:28:05.361Z,970.02
2018-02-12T08:29:05.252Z,970.04
2018-02-12T08:30:05.993Z,969.96
2018-02-12T08:31:06.302Z,969.91
2018-02-12T08:32:05.006Z,970.04
2018-02-12T08:33:05.528Z,969.96
2018-02-12T08:34:05.288Z,970.12
2018-02-12T08:35:05.282Z,970.17
2018-02-12T08:36:06.060Z,970.12
2018-02-12T08:37:05.511Z,970.11
2018-02-12T08:38:11.437Z,970.17
2018-02-12T08:39:05.422Z,970.05
2018-02-12T08:40:05.007Z,970.19
2018-02-12T08:41:06.130Z,970.21
2018-02-12T08:42:05.798Z,970.29
2018-02-12T08:43:05.199Z,970.29
2018-02-12T08:44:05.627Z,970.29
2018-02-12T08:45:05.240Z,970.31
2018-02-12T08:46:04.997Z,970.37
2018-02-12T08:47:05.452Z,970.37
2018-02-12T08:48:07.074Z,970.37
2018-02-12T08:49:05.044Z,970.25
2018-02-12T08:50:05.737Z,970.42
2018-02-12T08:51:05.074Z,970.28
2018-02-12T08:52:05.527Z,970.39
2018-02-12T08:53:06.189Z,970.36
2018-02-12T08:54:05.163Z,970.39
2018-02-12T08:55:05.630Z,970.36
2018-02-12T08:56:04.986Z,970.49
2018-02-12T08:57:05.431Z,970.49
2018-02-12T08:58:05.826Z,970.49
2018-02-12T08:59:05.829Z,970.65
2018-02-12T09:00:05.636Z,970.54
2018-02-12T09:01:05.096Z,970.54
2018-02-12T09:02:05.347Z,970.56
2018-02-12T09:03:05.401Z,970.51
2018-02-12T09:04:05.383Z,970.59
2018-02-12T09:05:05.957Z,970.48
2018-02-12T09:06:05.127Z,970.70
2018-02-12T09:07:05.444Z,970.64
2018-02-12T09:08:05.784Z,970.63
2018-02-12T09:09:05.038Z,970.69
2018-02-12T09:10:06.008Z,970.65
2018-02-12T09:11:05.415Z,970.71
2018-02-12T09:12:05.638Z,970.67
2018-02-12T09:13:05.363Z,970.67
2018-02-12T09:14:05.193Z,970.72
2018-02-12T09:15:05.551Z,970.69
2018-02-12T09:16:06.066Z,970.63
2018-02-12T09:17:05.050Z,970.76
2018-02-12T09:18:05.613Z,970.68
2018-02-12T09:19:05.194Z,970.76
2018-02-12T09:20:05.306Z,970.64
2018-02-12T09:21:06.064Z,970.69
2018-02-12T09:22:05.593Z,970.75
2018-02-12T09:23:05.674Z,970.75
2018-02-12T09:24:05.569Z,970.74
2018-02-12T09:25:05.654Z,970.77
2018-02-12T09:26:05.004Z,970.80
2018-02-12T09:27:05.730Z,970.83
2018-02-12T09:28:04.999Z,970.83
2018-02-12T09:29:05.755Z,970.97
2018-02-12T09:30:05.747Z,970.92
2018-02-12T09:31:05.723Z,970.97
2018-02-12T09:32:05.387Z,970.94
2018-02-12T09:33:05.679Z,970.92
2018-02-12T09:34:05.622Z,970.89
2018-02-12T09:35:05.835Z,971.12
2018-02-12T09:36:05.608Z,971.09
2018-02-12T09:37:04.932Z,970.98
2018-02-12T09:38:06.009Z,971.01
2018-02-12T09:39:05.177Z,970.95
2018-02-12T09:40:05.336Z,970.98
2018-02-12T09:41:05.393Z,971.09
2018-02-12T09:42:05.818Z,971.06
2018-02-12T09:43:05.835Z,971.04
2018-02-12T09:44:05.668Z,971.29
2018-02-12T09:45:06.818Z,970.98
2018-02-12T09:46:05.421Z,971.06
2018-02-12T09:47:05.580Z,971.26
2018-02-12T09:48:05.115Z,971.28
2018-02-12T09:49:05.254Z,971.12
2018-02-12T09:50:05.200Z,971.03
2018-02-12T09:51:05.718Z,971.17
2018-02-12T09:52:05.686Z,971.36
2018-02-12T09:53:05.124Z,971.20
2018-02-12T09:54:05.447Z,971.31
2018-02-12T09:55:10.719Z,971.17
2018-02-12T09:56:05.822Z,971.42
2018-02-12T09:57:09.978Z,971.25
2018-02-12T09:58:06.215Z,971.27
2018-02-12T09:59:05.567Z,971.33
2018-02-12T10:00:05.250Z,971.25
2018-02-12T10:01:05.521Z,971.24
2018-02-12T10:02:05.784Z,971.38
2018-02-12T10:03:05.723Z,971.22
2018-02-12T10:04:05.403Z,971.38
2018-02-12T10:05:05.076Z,971.38
2018-02-12T10:06:05.392Z,971.41
2018-02-12T10:07:05.115Z,971.46
2018-02-12T10:08:05.627Z,971.41
2018-02-12T10:09:05.646Z,971.69
2018-02-12T10:10:05.348Z,971.52
2018-02-12T10:11:06.045Z,971.55
2018-02-12T10:12:05.177Z,971.52
2018-02-12T10:13:05.543Z,971.46
2018-02-12T10:14:06.048Z,971.52
2018-02-12T10:15:05.447Z,971.58
2018-02-12T10:16:05.267Z,971.69
2018-02-12T10:17:05.812Z,971.55
2018-02-12T10:18:05.460Z,971.50
2018-02-12T10:19:05.892Z,971.67
2018-02-12T10:20:05.298Z,971.53
2018-02-12T10:21:05.820Z,971.70
2018-02-12T10:22:10.318Z,971.70
2018-02-12T10:23:05.464Z,971.56
2018-02-12T10:24:05.292Z,971.59
2018-02-12T10:25:04.954Z,971.59
2018-02-12T10:26:05.434Z,971.61
2018-02-12T10:27:10.158Z,971.75
2018-02-12T10:28:05.105Z,971.56
2018-02-12T10:29:05.762Z,971.61
2018-02-12T10:30:05.496Z,971.53
2018-02-12T10:31:05.801Z,971.70
2018-02-12T10:32:06.054Z,971.67
2018-02-12T10:33:05.035Z,971.70
2018-02-12T10:34:05.232Z,971.70
2018-02-12T10:35:06.175Z,971.73
2018-02-12T10:36:05.423Z,971.70
2018-02-12T10:37:05.131Z,971.78
2018-02-12T10:38:05.491Z,971.70
2018-02-12T10:39:05.856Z,971.70
2018-02-12T10:40:05.449Z,971.59
2018-02-12T10:41:05.214Z,971.76
2018-02-12T10:42:05.810Z,971.70
2018-02-12T10:43:05.724Z,971.62
2018-02-12T10:44:05.282Z,971.81
2018-02-12T10:45:05.265Z,971.79
2018-02-12T10:46:05.429Z,971.70
2018-02-12T10:47:05.792Z,971.65
2018-02-12T10:48:05.307Z,971.73
2018-02-12T10:49:05.149Z,971.73
2018-02-12T10:50:05.073Z,971.81
2018-02-12T10:51:05.034Z,971.76
2018-02-12T10:52:05.894Z,971.67
2018-02-12T10:53:05.240Z,971.67
2018-02-12T10:54:05.090Z,971.79
2018-02-12T10:55:05.819Z,971.79
2018-02-12T10:56:05.329Z,971.83
2018-02-12T10:57:05.321Z,971.79
2018-02-12T10:58:05.572Z,971.89
2018-02-12T10:59:05.066Z,971.89
2018-02-12T11:00:05.410Z,971.83
2018-02-12T11:01:05.023Z,971.81
2018-02-12T11:02:05.815Z,971.81
2018-02-12T11:03:05.209Z,971.94
2018-02-12T11:04:05.241Z,971.92
2018-02-12T11:05:05.388Z,971.83
2018-02-12T11:06:05.057Z,971.78
2018-02-12T11:07:05.602Z,971.88
2018-02-12T11:08:05.254Z,971.88
2018-02-12T11:09:05.230Z,971.85
2018-02-12T11:10:05.936Z,971.83
2018-02-12T11:11:10.042Z,971.83
2018-02-12T11:12:05.222Z,971.81
2018-02-12T11:13:05.514Z,971.94
2018-02-12T11:14:05.473Z,971.97
2018-02-12T11:15:05.388Z,972.13
2018-02-12T11:16:05.449Z,971.99
2018-02-12T11:17:05.956Z,972.11
2018-02-12T11:18:06.737Z,971.97
2018-02-12T11:19:05.784Z,971.97
2018-02-12T11:20:06.028Z,972.05
2018-02-12T11:21:05.686Z,972.05
2018-02-12T11:22:05.266Z,972.11
2018-02-12T11:23:05.814Z,972.05
2018-02-12T11:24:05.188Z,972.25
2018-02-12T11:25:05.683Z,972.03
2018-02-12T11:26:05.593Z,972.03
2018-02-12T11:27:05.626Z,972.11
2018-02-12T11:28:06.034Z,972.12
2018-02-12T11:29:05.115Z,972.26
2018-02-12T11:30:05.834Z,972.14
2018-02-12T11:31:05.303Z,972.09
2018-02-12T11:32:06.144Z,972.09
2018-02-12T11:33:05.399Z,972.18
2018-02-12T11:34:05.839Z,971.95
2018-02-12T11:35:05.617Z,972.18
2018-02-12T11:36:05.763Z,972.23
2018-02-12T11:37:10.030Z,972.12
2018-02-12T11:38:05.931Z,972.21
2018-02-12T11:39:05.175Z,972.12
2018-02-12T11:40:05.036Z,972.10
2018-02-12T11:41:05.490Z,972.18
2018-02-12T11:42:05.392Z,972.13
2018-02-12T11:43:05.485Z,972.32
2018-02-12T11:44:05.999Z,972.21
2018-02-12T11:45:05.445Z,972.24
2018-02-12T11:46:05.523Z,972.21
2018-02-12T11:47:05.116Z,972.21
2018-02-12T11:48:05.929Z,972.21
2018-02-12T11:49:05.879Z,972.21
2018-02-12T11:50:05.259Z,972.15
2018-02-12T11:51:05.215Z,972.27
2018-02-12T11:52:05.764Z,972.24
2018-02-12T11:53:04.977Z,972.24
2018-02-12T11:54:05.228Z,972.24
2018-02-12T11:55:05.643Z,972.21
2018-02-12T11:56:05.942Z,972.24
2018-02-12T11:57:05.203Z,972.23
2018-02-12T11:58:05.152Z,972.21
2018-02-12T11:59:06.188Z,972.29
2018-02-12T12:00:10.179Z,972.12
2018-02-12T12:01:05.651Z,972.26
2018-02-12T12:02:05.489Z,972.32
2018-02-12T12:03:05.773Z,972.37
2018-02-12T12:04:05.710Z,972.32
2018-02-12T12:05:05.779Z,972.20
2018-02-12T12:06:05.293Z,972.31
2018-02-12T12:07:05.758Z,972.18
2018-02-12T12:08:05.962Z,972.37
2018-02-12T12:09:05.577Z,972.26
2018-02-12T12:10:05.834Z,972.34
2018-02-12T12:11:05.471Z,972.34
2018-02-12T12:12:05.605Z,972.37
2018-02-12T12:13:05.730Z,972.29
2018-02-12T12:14:05.727Z,972.37
2018-02-12T12:15:06.050Z,972.26
2018-02-12T12:16:05.991Z,972.23
2018-02-12T12:17:05.340Z,972.31
2018-02-12T12:18:05.120Z,972.43
2018-02-12T12:19:05.240Z,972.34
2018-02-12T12:20:05.522Z,972.29
2018-02-12T12:21:05.575Z,972.32
2018-02-12T12:22:05.789Z,972.34
2018-02-12T12:23:05.313Z,972.34
2018-02-12T12:24:05.881Z,972.53
2018-02-12T12:25:05.582Z,972.56
2018-02-12T12:26:09.985Z,972.40
2018-02-12T12:27:05.081Z,972.45
2018-02-12T12:28:05.065Z,972.53